sensor_id;sensor_type;location;lat;lon;timestamp;P1;P2;P0
31163;PMS5003;17796;49.296;-117.656;2024-01-15T00:08:36;2;1;
31163;PMS5003;17796;49.296;-117.656;2024-01-15T00:23:43;1;1;
31163;PMS5003;17796;49.296;-117.656;2024-01-15T00:38:46;3;3;
31163;PMS5003;17796;49.296;-117.656;2024-01-15T00:53:50;2;2;
31163;PMS5003;17796;49.296;-117.656;2024-01-15T01:08:54;3;3;
31163;PMS5003;17796;49.296;-117.656;2024-01-15T01:23:57;5;5;
31163;PMS5003;17796;49.296;-117.656;2024-01-15T01:39:01;3;2;
31163;PMS5003;17796;49.296;-117.656;2024-01-15T01:54:05;2;1;
31163;PMS5003;17796;49.296;-117.656;2024-01-15T02:09:10;3;2;
31163;PMS5003;17796;49.296;-117.656;2024-01-15T02:24:14;6;2;
31163;PMS5003;17796;49.296;-117.656;2024-01-15T02:39:18;6;5;
31163;PMS5003;17796;49.296;-117.656;2024-01-15T02:54:22;2;2;
31163;PMS5003;17796;49.296;-117.656;2024-01-15T03:09:25;3;3;
31163;PMS5003;17796;49.296;-117.656;2024-01-15T03:24:29;5;3;
31163;PMS5003;17796;49.296;-117.656;2024-01-15T03:39:32;6;6;
31163;PMS5003;17796;49.296;-117.656;2024-01-15T03:54:36;2;2;
31163;PMS5003;17796;49.296;-117.656;2024-01-15T04:09:40;2;2;
31163;PMS5003;17796;49.296;-117.656;2024-01-15T04:24:44;3;3;
31163;PMS5003;17796;49.296;-117.656;2024-01-15T04:39:47;2;2;
31163;PMS5003;17796;49.296;-117.656;2024-01-15T04:54:51;6;5;
31163;PMS5003;17796;49.296;-117.656;2024-01-15T05:09:55;2;2;
31163;PMS5003;17796;49.296;-117.656;2024-01-15T05:24:58;1;1;
31163;PMS5003;17796;49.296;-117.656;2024-01-15T05:40:02;3;1;
31163;PMS5003;17796;49.296;-117.656;2024-01-15T05:55:06;1;1;
31163;PMS5003;17796;49.296;-117.656;2024-01-15T06:10:10;1;1;
31163;PMS5003;17796;49.296;-117.656;2024-01-15T06:25:14;2;2;
31163;PMS5003;17796;49.296;-117.656;2024-01-15T06:40:17;3;2;
31163;PMS5003;17796;49.296;-117.656;2024-01-15T06:55:21;2;2;
31163;PMS5003;17796;49.296;-117.656;2024-01-15T07:10:29;1;1;
31163;PMS5003;17796;49.296;-117.656;2024-01-15T07:25:33;2;1;
31163;PMS5003;17796;49.296;-117.656;2024-01-15T07:40:37;2;2;
31163;PMS5003;17796;49.296;-117.656;2024-01-15T07:55:42;0;0;
31163;PMS5003;17796;49.296;-117.656;2024-01-15T08:10:46;1;1;
31163;PMS5003;17796;49.296;-117.656;2024-01-15T08:25:49;2;2;
31163;PMS5003;17796;49.296;-117.656;2024-01-15T08:40:53;2;2;
31163;PMS5003;17796;49.296;-117.656;2024-01-15T08:55:56;2;2;
31163;PMS5003;17796;49.296;-117.656;2024-01-15T09:11:01;3;1;
31163;PMS5003;17796;49.296;-117.656;2024-01-15T09:26:06;2;2;
31163;PMS5003;17796;49.296;-117.656;2024-01-15T09:41:11;2;2;
31163;PMS5003;17796;49.296;-117.656;2024-01-15T09:56:15;4;1;
31163;PMS5003;17796;49.296;-117.656;2024-01-15T10:11:19;3;2;
31163;PMS5003;17796;49.296;-117.656;2024-01-15T10:26:26;2;1;
31163;PMS5003;17796;49.296;-117.656;2024-01-15T10:41:29;12;7;
31163;PMS5003;17796;49.296;-117.656;2024-01-15T10:56:33;9;4;
31163;PMS5003;17796;49.296;-117.656;2024-01-15T11:11:40;3;3;
31163;PMS5003;17796;49.296;-117.656;2024-01-15T11:26:46;3;2;
31163;PMS5003;17796;49.296;-117.656;2024-01-15T11:41:50;7;3;
31163;PMS5003;17796;49.296;-117.656;2024-01-15T11:56:54;6;5;
31163;PMS5003;17796;49.296;-117.656;2024-01-15T12:12:06;5;5;
31163;PMS5003;17796;49.296;-117.656;2024-01-15T12:27:12;3;3;
31163;PMS5003;17796;49.296;-117.656;2024-01-15T12:42:16;7;5;
31163;PMS5003;17796;49.296;-117.656;2024-01-15T12:57:20;7;6;
31163;PMS5003;17796;49.296;-117.656;2024-01-15T13:12:23;6;6;
31163;PMS5003;17796;49.296;-117.656;2024-01-15T13:27:27;3;3;
31163;PMS5003;17796;49.296;-117.656;2024-01-15T13:42:31;3;3;
31163;PMS5003;17796;49.296;-117.656;2024-01-15T13:57:34;5;3;
31163;PMS5003;17796;49.296;-117.656;2024-01-15T14:12:38;3;3;
31163;PMS5003;17796;49.296;-117.656;2024-01-15T14:27:41;6;3;
31163;PMS5003;17796;49.296;-117.656;2024-01-15T14:42:45;5;5;
31163;PMS5003;17796;49.296;-117.656;2024-01-15T14:57:49;11;9;
31163;PMS5003;17796;49.296;-117.656;2024-01-15T15:12:53;12;6;
31163;PMS5003;17796;49.296;-117.656;2024-01-15T15:27:56;8;5;
31163;PMS5003;17796;49.296;-117.656;2024-01-15T15:43:00;7;5;
31163;PMS5003;17796;49.296;-117.656;2024-01-15T15:58:04;8;7;
31163;PMS5003;17796;49.296;-117.656;2024-01-15T16:13:07;7;7;
31163;PMS5003;17796;49.296;-117.656;2024-01-15T16:28:11;11;6;
31163;PMS5003;17796;49.296;-117.656;2024-01-15T16:43:14;9;7;
31163;PMS5003;17796;49.296;-117.656;2024-01-15T16:58:24;9;9;
31163;PMS5003;17796;49.296;-117.656;2024-01-15T17:13:28;5;5;
31163;PMS5003;17796;49.296;-117.656;2024-01-15T17:28:31;10;7;
31163;PMS5003;17796;49.296;-117.656;2024-01-15T17:43:35;8;7;
31163;PMS5003;17796;49.296;-117.656;2024-01-15T17:58:38;6;6;
31163;PMS5003;17796;49.296;-117.656;2024-01-15T18:13:42;10;7;
31163;PMS5003;17796;49.296;-117.656;2024-01-15T18:28:45;5;5;
31163;PMS5003;17796;49.296;-117.656;2024-01-15T18:43:49;15;11;
31163;PMS5003;17796;49.296;-117.656;2024-01-15T18:58:52;12;11;
31163;PMS5003;17796;49.296;-117.656;2024-01-15T19:13:55;11;10;
31163;PMS5003;17796;49.296;-117.656;2024-01-15T19:28:59;11;8;
31163;PMS5003;17796;49.296;-117.656;2024-01-15T19:44:03;13;11;
31163;PMS5003;17796;49.296;-117.656;2024-01-15T19:59:06;10;10;
31163;PMS5003;17796;49.296;-117.656;2024-01-15T20:14:10;12;10;
31163;PMS5003;17796;49.296;-117.656;2024-01-15T20:29:14;11;11;
31163;PMS5003;17796;49.296;-117.656;2024-01-15T20:44:17;8;8;
31163;PMS5003;17796;49.296;-117.656;2024-01-15T20:59:22;9;7;
31163;PMS5003;17796;49.296;-117.656;2024-01-15T21:14:25;16;14;
31163;PMS5003;17796;49.296;-117.656;2024-01-15T21:29:29;23;15;
31163;PMS5003;17796;49.296;-117.656;2024-01-15T21:44:32;24;17;
31163;PMS5003;17796;49.296;-117.656;2024-01-15T21:59:36;9;7;
31163;PMS5003;17796;49.296;-117.656;2024-01-15T22:14:40;17;12;
31163;PMS5003;17796;49.296;-117.656;2024-01-15T22:29:43;17;10;
31163;PMS5003;17796;49.296;-117.656;2024-01-15T22:44:47;18;11;
31163;PMS5003;17796;49.296;-117.656;2024-01-15T22:59:50;16;13;
31163;PMS5003;17796;49.296;-117.656;2024-01-15T23:14:55;14;12;
31163;PMS5003;17796;49.296;-117.656;2024-01-15T23:29:59;19;17;
31163;PMS5003;17796;49.296;-117.656;2024-01-15T23:45:03;16;16;
